Hovedside
METAR-TAF:

METAR-TAF

Lufthavner :

Örnsköldsvik lufthavn

Örnsköldsvik, Sverige

breddegrad: 63-24N, lengdegrad: 018-58E, høyde over havet: 103 m

Gjeldene værobservasjon

Denne rapporten ble laget for 39 minutter siden, klokken 00:50 UTC
Vind 12 kt fra Sør-sørvest
Temperatur 2°C
Luftfuktighet 69%
Trykk 1004 hPa
Sikt 10 km eller mer

METAR: ESNO 230050Z AUTO 21012KT 9999 OVC098/// 02/M03 Q1004

Tid: 02:29 (01:29 UTC)

Varsel

Denne rapporten ble laget for 7 timer og 59 minutter siden, klokken 17:30 UTC
Varsel gyldig fra 22. klokken 18 UTC til 22. klokken 20 UTC
Vind 12 kt fra Sør med vindkast opp mot 22 kt
Sikt 10 km eller mer
ingen skyer under 1500 m og ingen bygeskyer

TAF: ESNO 221730Z 2218/2220 18012G22KT CAVOK

Værobservasjoner og værvarsel for over 4000 flyplasser (METAR- og TAF-rapporter).

Tilgjengelige stasjoner er representert av de røde og gule prikkene på kartet.

Hold musepekeren over prikken for å se navnet på stasjonen.

Klikk så for å se værobservasjoner og -varsler.

For å forandre kartet kan du klikke på den grønne knappen med svart kryss for å zoome inn, på den grønne knappen med strek for å zoome ut, eller på de grønne pilene for å se tilstøtende kart.


METAR-TAF: